sensor_id;sensor_type;location;lat;lon;timestamp;P1;durP1;ratioP1;P2;durP2;ratioP2
22429;SDS011;11382;48.086;11.632;2023-03-31T00:00:50;13.27;;;5.40;;
22429;SDS011;11382;48.086;11.632;2023-03-31T00:03:18;7.95;;;4.97;;
22429;SDS011;11382;48.086;11.632;2023-03-31T00:05:55;11.48;;;5.20;;
22429;SDS011;11382;48.086;11.632;2023-03-31T00:08:24;11.43;;;5.28;;
22429;SDS011;11382;48.086;11.632;2023-03-31T00:10:57;9.05;;;4.75;;
22429;SDS011;11382;48.086;11.632;2023-03-31T00:13:26;8.80;;;4.82;;
22429;SDS011;11382;48.086;11.632;2023-03-31T00:15:57;8.10;;;5.20;;
22429;SDS011;11382;48.086;11.632;2023-03-31T00:18:28;12.10;;;5.25;;
22429;SDS011;11382;48.086;11.632;2023-03-31T00:21:04;9.70;;;5.32;;
22429;SDS011;11382;48.086;11.632;2023-03-31T00:23:34;9.07;;;5.40;;
22429;SDS011;11382;48.086;11.632;2023-03-31T00:26:02;10.23;;;5.18;;
22429;SDS011;11382;48.086;11.632;2023-03-31T00:28:30;6.55;;;4.72;;
22429;SDS011;11382;48.086;11.632;2023-03-31T00:30:59;10.93;;;5.13;;
22429;SDS011;11382;48.086;11.632;2023-03-31T00:33:27;9.57;;;5.00;;
22429;SDS011;11382;48.086;11.632;2023-03-31T00:35:56;11.15;;;5.28;;
22429;SDS011;11382;48.086;11.632;2023-03-31T00:38:28;9.23;;;5.78;;
22429;SDS011;11382;48.086;11.632;2023-03-31T00:40:56;7.63;;;5.47;;
22429;SDS011;11382;48.086;11.632;2023-03-31T00:43:27;8.73;;;5.38;;
22429;SDS011;11382;48.086;11.632;2023-03-31T00:46:02;8.07;;;5.50;;
22429;SDS011;11382;48.086;11.632;2023-03-31T00:48:34;8.27;;;5.18;;
22429;SDS011;11382;48.086;11.632;2023-03-31T00:51:04;8.95;;;6.00;;
22429;SDS011;11382;48.086;11.632;2023-03-31T00:53:35;8.52;;;5.05;;
22429;SDS011;11382;48.086;11.632;2023-03-31T00:56:05;9.52;;;5.13;;
22429;SDS011;11382;48.086;11.632;2023-03-31T00:58:35;8.48;;;5.38;;
22429;SDS011;11382;48.086;11.632;2023-03-31T01:01:09;10.50;;;5.55;;
22429;SDS011;11382;48.086;11.632;2023-03-31T01:03:41;11.05;;;5.95;;
22429;SDS011;11382;48.086;11.632;2023-03-31T01:06:12;7.85;;;4.90;;
22429;SDS011;11382;48.086;11.632;2023-03-31T01:08:46;9.00;;;5.20;;
22429;SDS011;11382;48.086;11.632;2023-03-31T01:11:17;6.85;;;5.32;;
22429;SDS011;11382;48.086;11.632;2023-03-31T01:13:48;8.57;;;4.82;;
22429;SDS011;11382;48.086;11.632;2023-03-31T01:16:21;10.13;;;5.90;;
22429;SDS011;11382;48.086;11.632;2023-03-31T01:18:49;8.52;;;4.82;;
22429;SDS011;11382;48.086;11.632;2023-03-31T01:21:32;10.68;;;5.70;;
22429;SDS011;11382;48.086;11.632;2023-03-31T01:27:27;8.10;;;5.10;;
22429;SDS011;11382;48.086;11.632;2023-03-31T01:30:26;9.27;;;5.22;;
22429;SDS011;11382;48.086;11.632;2023-03-31T01:39:49;10.77;;;5.63;;
22429;SDS011;11382;48.086;11.632;2023-03-31T01:42:49;8.23;;;5.25;;
22429;SDS011;11382;48.086;11.632;2023-03-31T01:45:25;7.47;;;4.97;;
22429;SDS011;11382;48.086;11.632;2023-03-31T01:48:05;9.30;;;5.28;;
22429;SDS011;11382;48.086;11.632;2023-03-31T01:50:39;9.68;;;5.50;;
22429;SDS011;11382;48.086;11.632;2023-03-31T01:53:14;9.48;;;5.25;;
22429;SDS011;11382;48.086;11.632;2023-03-31T01:55:49;8.10;;;5.50;;
22429;SDS011;11382;48.086;11.632;2023-03-31T01:58:28;9.77;;;5.70;;
22429;SDS011;11382;48.086;11.632;2023-03-31T02:01:04;7.82;;;5.22;;
22429;SDS011;11382;48.086;11.632;2023-03-31T02:03:36;8.63;;;5.68;;
22429;SDS011;11382;48.086;11.632;2023-03-31T02:06:10;10.65;;;5.45;;
22429;SDS011;11382;48.086;11.632;2023-03-31T02:08:42;10.38;;;5.75;;
22429;SDS011;11382;48.086;11.632;2023-03-31T02:11:15;10.65;;;5.07;;
22429;SDS011;11382;48.086;11.632;2023-03-31T02:13:44;8.50;;;4.68;;
22429;SDS011;11382;48.086;11.632;2023-03-31T02:16:17;8.85;;;5.32;;
22429;SDS011;11382;48.086;11.632;2023-03-31T02:18:50;12.25;;;5.47;;
22429;SDS011;11382;48.086;11.632;2023-03-31T02:21:28;8.65;;;5.00;;
22429;SDS011;11382;48.086;11.632;2023-03-31T02:23:59;9.77;;;4.63;;
22429;SDS011;11382;48.086;11.632;2023-03-31T02:26:34;7.97;;;5.65;;
22429;SDS011;11382;48.086;11.632;2023-03-31T02:29:06;8.50;;;4.75;;
22429;SDS011;11382;48.086;11.632;2023-03-31T02:31:36;7.45;;;5.13;;
22429;SDS011;11382;48.086;11.632;2023-03-31T02:34:11;13.73;;;5.38;;
22429;SDS011;11382;48.086;11.632;2023-03-31T02:36:39;10.68;;;5.15;;
22429;SDS011;11382;48.086;11.632;2023-03-31T02:39:10;10.80;;;5.43;;
22429;SDS011;11382;48.086;11.632;2023-03-31T02:41:42;9.32;;;4.80;;
22429;SDS011;11382;48.086;11.632;2023-03-31T02:44:10;10.25;;;5.43;;
22429;SDS011;11382;48.086;11.632;2023-03-31T02:46:38;7.40;;;5.18;;
22429;SDS011;11382;48.086;11.632;2023-03-31T02:49:07;8.20;;;5.38;;
22429;SDS011;11382;48.086;11.632;2023-03-31T02:51:50;8.73;;;5.22;;
22429;SDS011;11382;48.086;11.632;2023-03-31T02:54:49;8.95;;;4.80;;
22429;SDS011;11382;48.086;11.632;2023-03-31T02:57:36;9.23;;;5.18;;
22429;SDS011;11382;48.086;11.632;2023-03-31T03:00:31;7.65;;;5.15;;
22429;SDS011;11382;48.086;11.632;2023-03-31T03:03:23;8.93;;;5.85;;
22429;SDS011;11382;48.086;11.632;2023-03-31T03:06:02;11.27;;;5.07;;
22429;SDS011;11382;48.086;11.632;2023-03-31T03:08:42;10.23;;;5.05;;
22429;SDS011;11382;48.086;11.632;2023-03-31T03:11:24;11.20;;;5.28;;
22429;SDS011;11382;48.086;11.632;2023-03-31T03:13:59;14.15;;;5.13;;
22429;SDS011;11382;48.086;11.632;2023-03-31T03:16:34;10.82;;;5.10;;
22429;SDS011;11382;48.086;11.632;2023-03-31T03:19:07;9.55;;;5.00;;
22429;SDS011;11382;48.086;11.632;2023-03-31T03:21:36;8.10;;;4.85;;
22429;SDS011;11382;48.086;11.632;2023-03-31T03:24:04;10.60;;;5.65;;
22429;SDS011;11382;48.086;11.632;2023-03-31T03:26:33;6.38;;;4.72;;
22429;SDS011;11382;48.086;11.632;2023-03-31T03:29:02;7.28;;;5.20;;
22429;SDS011;11382;48.086;11.632;2023-03-31T03:31:30;11.93;;;5.18;;
22429;SDS011;11382;48.086;11.632;2023-03-31T03:33:58;8.23;;;5.18;;
22429;SDS011;11382;48.086;11.632;2023-03-31T03:36:27;8.52;;;5.20;;
22429;SDS011;11382;48.086;11.632;2023-03-31T03:38:54;7.90;;;5.22;;
22429;SDS011;11382;48.086;11.632;2023-03-31T03:41:22;9.55;;;4.93;;
22429;SDS011;11382;48.086;11.632;2023-03-31T03:43:50;8.77;;;5.13;;
22429;SDS011;11382;48.086;11.632;2023-03-31T03:46:20;10.80;;;5.82;;
22429;SDS011;11382;48.086;11.632;2023-03-31T03:48:48;10.40;;;5.68;;
22429;SDS011;11382;48.086;11.632;2023-03-31T03:51:15;10.70;;;5.68;;
22429;SDS011;11382;48.086;11.632;2023-03-31T03:53:43;11.20;;;5.60;;
22429;SDS011;11382;48.086;11.632;2023-03-31T03:56:12;10.77;;;6.20;;
22429;SDS011;11382;48.086;11.632;2023-03-31T03:58:40;10.43;;;5.30;;
22429;SDS011;11382;48.086;11.632;2023-03-31T04:01:08;9.38;;;5.65;;
22429;SDS011;11382;48.086;11.632;2023-03-31T04:03:37;10.93;;;5.70;;
22429;SDS011;11382;48.086;11.632;2023-03-31T04:06:05;11.63;;;5.90;;
22429;SDS011;11382;48.086;11.632;2023-03-31T04:08:34;12.15;;;5.90;;
22429;SDS011;11382;48.086;11.632;2023-03-31T04:11:02;10.93;;;5.68;;
22429;SDS011;11382;48.086;11.632;2023-03-31T04:13:36;9.30;;;5.95;;
22429;SDS011;11382;48.086;11.632;2023-03-31T04:16:04;11.80;;;6.50;;
22429;SDS011;11382;48.086;11.632;2023-03-31T04:18:32;11.27;;;6.10;;
22429;SDS011;11382;48.086;11.632;2023-03-31T04:21:03;12.35;;;6.10;;
22429;SDS011;11382;48.086;11.632;2023-03-31T04:23:32;10.38;;;5.95;;
22429;SDS011;11382;48.086;11.632;2023-03-31T04:26:03;12.85;;;5.45;;
22429;SDS011;11382;48.086;11.632;2023-03-31T04:28:34;10.38;;;6.03;;
22429;SDS011;11382;48.086;11.632;2023-03-31T04:31:03;9.40;;;5.97;;
22429;SDS011;11382;48.086;11.632;2023-03-31T04:33:32;10.65;;;5.30;;
22429;SDS011;11382;48.086;11.632;2023-03-31T04:36:05;9.85;;;5.60;;
22429;SDS011;11382;48.086;11.632;2023-03-31T04:38:42;8.70;;;5.45;;
22429;SDS011;11382;48.086;11.632;2023-03-31T04:41:12;12.82;;;5.40;;
22429;SDS011;11382;48.086;11.632;2023-03-31T04:43:40;15.98;;;5.97;;
22429;SDS011;11382;48.086;11.632;2023-03-31T04:46:09;10.93;;;6.07;;
22429;SDS011;11382;48.086;11.632;2023-03-31T04:48:37;15.30;;;6.80;;
22429;SDS011;11382;48.086;11.632;2023-03-31T04:51:06;16.73;;;6.95;;
22429;SDS011;11382;48.086;11.632;2023-03-31T04:53:35;10.43;;;6.32;;
22429;SDS011;11382;48.086;11.632;2023-03-31T04:56:04;12.85;;;6.38;;
22429;SDS011;11382;48.086;11.632;2023-03-31T04:58:33;11.70;;;6.60;;
22429;SDS011;11382;48.086;11.632;2023-03-31T05:01:01;10.25;;;6.78;;
22429;SDS011;11382;48.086;11.632;2023-03-31T05:03:31;12.82;;;7.15;;
22429;SDS011;11382;48.086;11.632;2023-03-31T05:06:00;16.35;;;7.55;;
22429;SDS011;11382;48.086;11.632;2023-03-31T05:08:29;11.50;;;7.32;;
22429;SDS011;11382;48.086;11.632;2023-03-31T05:10:57;12.23;;;6.78;;
22429;SDS011;11382;48.086;11.632;2023-03-31T05:13:25;14.02;;;6.35;;
22429;SDS011;11382;48.086;11.632;2023-03-31T05:15:53;15.25;;;6.93;;
22429;SDS011;11382;48.086;11.632;2023-03-31T05:18:21;17.33;;;7.25;;
22429;SDS011;11382;48.086;11.632;2023-03-31T05:20:50;14.02;;;7.35;;
22429;SDS011;11382;48.086;11.632;2023-03-31T05:23:17;13.43;;;7.70;;
22429;SDS011;11382;48.086;11.632;2023-03-31T05:25:47;12.80;;;7.00;;
22429;SDS011;11382;48.086;11.632;2023-03-31T05:28:15;12.20;;;7.13;;
22429;SDS011;11382;48.086;11.632;2023-03-31T05:30:43;12.65;;;7.88;;
22429;SDS011;11382;48.086;11.632;2023-03-31T05:33:11;12.07;;;7.18;;
22429;SDS011;11382;48.086;11.632;2023-03-31T05:35:39;17.67;;;7.45;;
22429;SDS011;11382;48.086;11.632;2023-03-31T05:38:07;13.77;;;7.22;;
22429;SDS011;11382;48.086;11.632;2023-03-31T05:40:35;12.63;;;7.28;;
22429;SDS011;11382;48.086;11.632;2023-03-31T05:43:04;17.35;;;8.10;;
22429;SDS011;11382;48.086;11.632;2023-03-31T05:45:32;14.98;;;7.25;;
22429;SDS011;11382;48.086;11.632;2023-03-31T05:48:00;14.27;;;7.85;;
22429;SDS011;11382;48.086;11.632;2023-03-31T05:50:28;12.15;;;7.47;;
22429;SDS011;11382;48.086;11.632;2023-03-31T05:52:56;12.32;;;7.53;;
22429;SDS011;11382;48.086;11.632;2023-03-31T05:55:25;11.65;;;6.55;;
22429;SDS011;11382;48.086;11.632;2023-03-31T05:57:52;13.50;;;6.72;;
22429;SDS011;11382;48.086;11.632;2023-03-31T06:00:22;13.13;;;7.10;;
22429;SDS011;11382;48.086;11.632;2023-03-31T06:02:50;13.27;;;6.97;;
22429;SDS011;11382;48.086;11.632;2023-03-31T06:05:18;15.77;;;7.63;;
22429;SDS011;11382;48.086;11.632;2023-03-31T06:07:48;13.20;;;6.85;;
22429;SDS011;11382;48.086;11.632;2023-03-31T06:10:16;15.13;;;7.07;;
22429;SDS011;11382;48.086;11.632;2023-03-31T06:12:44;9.38;;;6.28;;
22429;SDS011;11382;48.086;11.632;2023-03-31T06:15:12;12.55;;;6.35;;
22429;SDS011;11382;48.086;11.632;2023-03-31T06:17:42;12.07;;;6.47;;
22429;SDS011;11382;48.086;11.632;2023-03-31T06:20:10;9.75;;;6.03;;
22429;SDS011;11382;48.086;11.632;2023-03-31T06:22:53;10.57;;;6.50;;
22429;SDS011;11382;48.086;11.632;2023-03-31T06:25:21;15.20;;;6.32;;
22429;SDS011;11382;48.086;11.632;2023-03-31T06:27:52;13.40;;;6.25;;
22429;SDS011;11382;48.086;11.632;2023-03-31T06:30:21;13.65;;;6.43;;
22429;SDS011;11382;48.086;11.632;2023-03-31T06:32:50;10.45;;;5.82;;
22429;SDS011;11382;48.086;11.632;2023-03-31T06:35:18;9.55;;;5.53;;
22429;SDS011;11382;48.086;11.632;2023-03-31T06:37:46;8.98;;;5.75;;
22429;SDS011;11382;48.086;11.632;2023-03-31T06:40:14;11.05;;;5.40;;
22429;SDS011;11382;48.086;11.632;2023-03-31T06:42:43;11.05;;;5.30;;
22429;SDS011;11382;48.086;11.632;2023-03-31T06:45:10;15.38;;;6.22;;
22429;SDS011;11382;48.086;11.632;2023-03-31T06:47:38;12.48;;;5.68;;
22429;SDS011;11382;48.086;11.632;2023-03-31T06:50:10;11.05;;;5.30;;
22429;SDS011;11382;48.086;11.632;2023-03-31T06:52:41;8.23;;;4.93;;
22429;SDS011;11382;48.086;11.632;2023-03-31T06:55:09;8.25;;;4.93;;
22429;SDS011;11382;48.086;11.632;2023-03-31T06:57:38;7.78;;;4.47;;
22429;SDS011;11382;48.086;11.632;2023-03-31T07:00:09;7.38;;;4.70;;
22429;SDS011;11382;48.086;11.632;2023-03-31T07:02:37;11.55;;;5.63;;
22429;SDS011;11382;48.086;11.632;2023-03-31T07:05:06;8.20;;;4.70;;
22429;SDS011;11382;48.086;11.632;2023-03-31T07:07:35;11.48;;;5.22;;
22429;SDS011;11382;48.086;11.632;2023-03-31T07:10:04;7.72;;;5.68;;
22429;SDS011;11382;48.086;11.632;2023-03-31T07:12:33;9.68;;;5.15;;
22429;SDS011;11382;48.086;11.632;2023-03-31T07:15:01;7.35;;;4.72;;
22429;SDS011;11382;48.086;11.632;2023-03-31T07:17:29;11.43;;;5.97;;
22429;SDS011;11382;48.086;11.632;2023-03-31T07:19:57;8.68;;;5.50;;
22429;SDS011;11382;48.086;11.632;2023-03-31T07:22:25;13.93;;;6.03;;
22429;SDS011;11382;48.086;11.632;2023-03-31T07:24:54;11.90;;;6.00;;
22429;SDS011;11382;48.086;11.632;2023-03-31T07:27:22;10.02;;;5.70;;
22429;SDS011;11382;48.086;11.632;2023-03-31T07:29:51;8.98;;;5.32;;
22429;SDS011;11382;48.086;11.632;2023-03-31T07:32:20;13.40;;;6.15;;
22429;SDS011;11382;48.086;11.632;2023-03-31T07:34:51;12.02;;;5.90;;
22429;SDS011;11382;48.086;11.632;2023-03-31T07:37:19;9.55;;;5.80;;
22429;SDS011;11382;48.086;11.632;2023-03-31T07:39:47;11.98;;;6.45;;
22429;SDS011;11382;48.086;11.632;2023-03-31T07:42:21;13.15;;;6.00;;
22429;SDS011;11382;48.086;11.632;2023-03-31T07:44:50;13.82;;;5.50;;
22429;SDS011;11382;48.086;11.632;2023-03-31T07:47:18;10.38;;;5.72;;
22429;SDS011;11382;48.086;11.632;2023-03-31T07:49:46;10.38;;;5.90;;
22429;SDS011;11382;48.086;11.632;2023-03-31T07:52:15;15.20;;;6.40;;
22429;SDS011;11382;48.086;11.632;2023-03-31T07:54:45;11.75;;;6.10;;
22429;SDS011;11382;48.086;11.632;2023-03-31T07:57:13;8.85;;;5.85;;
22429;SDS011;11382;48.086;11.632;2023-03-31T07:59:43;8.15;;;5.53;;
22429;SDS011;11382;48.086;11.632;2023-03-31T08:02:12;10.63;;;6.22;;
22429;SDS011;11382;48.086;11.632;2023-03-31T08:04:42;8.52;;;5.55;;
22429;SDS011;11382;48.086;11.632;2023-03-31T08:07:10;11.05;;;6.00;;
22429;SDS011;11382;48.086;11.632;2023-03-31T08:09:45;10.55;;;6.15;;
22429;SDS011;11382;48.086;11.632;2023-03-31T08:12:14;12.02;;;6.32;;
22429;SDS011;11382;48.086;11.632;2023-03-31T08:14:43;15.65;;;5.68;;
22429;SDS011;11382;48.086;11.632;2023-03-31T08:17:11;9.90;;;5.68;;
22429;SDS011;11382;48.086;11.632;2023-03-31T08:19:40;11.07;;;5.95;;
22429;SDS011;11382;48.086;11.632;2023-03-31T08:22:08;13.82;;;6.40;;
22429;SDS011;11382;48.086;11.632;2023-03-31T08:24:36;13.45;;;6.50;;
22429;SDS011;11382;48.086;11.632;2023-03-31T08:27:05;9.45;;;6.07;;
22429;SDS011;11382;48.086;11.632;2023-03-31T08:29:39;11.60;;;6.07;;
22429;SDS011;11382;48.086;11.632;2023-03-31T08:32:10;10.55;;;6.10;;
22429;SDS011;11382;48.086;11.632;2023-03-31T08:34:41;9.88;;;5.20;;
22429;SDS011;11382;48.086;11.632;2023-03-31T08:37:11;13.02;;;6.47;;
22429;SDS011;11382;48.086;11.632;2023-03-31T08:39:41;10.00;;;5.93;;
22429;SDS011;11382;48.086;11.632;2023-03-31T08:42:10;12.52;;;6.40;;
22429;SDS011;11382;48.086;11.632;2023-03-31T08:44:44;10.30;;;6.03;;
22429;SDS011;11382;48.086;11.632;2023-03-31T08:47:26;9.93;;;6.53;;
22429;SDS011;11382;48.086;11.632;2023-03-31T08:49:59;13.25;;;6.40;;
22429;SDS011;11382;48.086;11.632;2023-03-31T08:52:33;11.68;;;6.57;;
22429;SDS011;11382;48.086;11.632;2023-03-31T08:55:04;12.35;;;7.05;;
22429;SDS011;11382;48.086;11.632;2023-03-31T08:57:37;17.67;;;6.80;;
22429;SDS011;11382;48.086;11.632;2023-03-31T09:00:14;14.43;;;6.40;;
22429;SDS011;11382;48.086;11.632;2023-03-31T09:02:47;8.80;;;6.28;;
22429;SDS011;11382;48.086;11.632;2023-03-31T09:05:26;9.43;;;6.20;;
22429;SDS011;11382;48.086;11.632;2023-03-31T09:08:27;11.35;;;6.82;;
22429;SDS011;11382;48.086;11.632;2023-03-31T09:11:02;8.10;;;6.40;;
22429;SDS011;11382;48.086;11.632;2023-03-31T09:13:55;9.70;;;4.40;;
22429;SDS011;11382;48.086;11.632;2023-03-31T09:16:32;8.32;;;4.68;;
22429;SDS011;11382;48.086;11.632;2023-03-31T09:19:10;10.05;;;4.47;;
22429;SDS011;11382;48.086;11.632;2023-03-31T09:21:42;9.27;;;4.00;;
22429;SDS011;11382;48.086;11.632;2023-03-31T09:24:14;8.32;;;4.35;;
22429;SDS011;11382;48.086;11.632;2023-03-31T09:26:47;6.10;;;4.30;;
22429;SDS011;11382;48.086;11.632;2023-03-31T09:29:20;7.82;;;4.00;;
22429;SDS011;11382;48.086;11.632;2023-03-31T09:31:59;4.72;;;3.80;;
22429;SDS011;11382;48.086;11.632;2023-03-31T09:34:31;5.05;;;3.55;;
22429;SDS011;11382;48.086;11.632;2023-03-31T09:37:02;4.70;;;3.45;;
22429;SDS011;11382;48.086;11.632;2023-03-31T09:39:30;5.80;;;3.50;;
22429;SDS011;11382;48.086;11.632;2023-03-31T09:42:00;4.57;;;2.95;;
22429;SDS011;11382;48.086;11.632;2023-03-31T09:44:31;6.10;;;3.00;;
22429;SDS011;11382;48.086;11.632;2023-03-31T09:47:04;6.20;;;3.40;;
22429;SDS011;11382;48.086;11.632;2023-03-31T09:49:39;5.22;;;3.13;;
22429;SDS011;11382;48.086;11.632;2023-03-31T09:52:22;6.05;;;3.40;;
22429;SDS011;11382;48.086;11.632;2023-03-31T09:54:54;4.95;;;2.97;;
22429;SDS011;11382;48.086;11.632;2023-03-31T09:57:25;9.35;;;3.50;;
22429;SDS011;11382;48.086;11.632;2023-03-31T10:00:03;5.75;;;3.00;;
22429;SDS011;11382;48.086;11.632;2023-03-31T10:02:40;5.53;;;3.33;;
22429;SDS011;11382;48.086;11.632;2023-03-31T10:05:20;7.25;;;3.50;;
22429;SDS011;11382;48.086;11.632;2023-03-31T10:08:10;5.68;;;3.40;;
22429;SDS011;11382;48.086;11.632;2023-03-31T10:10:54;6.15;;;3.55;;
22429;SDS011;11382;48.086;11.632;2023-03-31T10:13:23;6.75;;;3.80;;
22429;SDS011;11382;48.086;11.632;2023-03-31T10:16:00;6.13;;;3.40;;
22429;SDS011;11382;48.086;11.632;2023-03-31T10:18:31;5.00;;;3.22;;
22429;SDS011;11382;48.086;11.632;2023-03-31T10:21:03;5.30;;;3.20;;
22429;SDS011;11382;48.086;11.632;2023-03-31T10:23:33;5.35;;;3.17;;
22429;SDS011;11382;48.086;11.632;2023-03-31T10:26:03;4.32;;;2.80;;
22429;SDS011;11382;48.086;11.632;2023-03-31T10:28:33;4.68;;;2.95;;
22429;SDS011;11382;48.086;11.632;2023-03-31T10:31:02;4.25;;;2.63;;
22429;SDS011;11382;48.086;11.632;2023-03-31T10:33:32;4.70;;;2.78;;
22429;SDS011;11382;48.086;11.632;2023-03-31T10:36:06;3.65;;;2.63;;
22429;SDS011;11382;48.086;11.632;2023-03-31T10:38:43;4.70;;;2.50;;
22429;SDS011;11382;48.086;11.632;2023-03-31T10:41:11;3.42;;;2.78;;
22429;SDS011;11382;48.086;11.632;2023-03-31T10:43:47;5.80;;;2.70;;
22429;SDS011;11382;48.086;11.632;2023-03-31T10:46:18;4.47;;;2.80;;
22429;SDS011;11382;48.086;11.632;2023-03-31T10:48:46;5.22;;;3.08;;
22429;SDS011;11382;48.086;11.632;2023-03-31T10:51:16;4.20;;;2.70;;
22429;SDS011;11382;48.086;11.632;2023-03-31T10:53:48;3.53;;;2.90;;
22429;SDS011;11382;48.086;11.632;2023-03-31T10:56:23;4.70;;;2.70;;
22429;SDS011;11382;48.086;11.632;2023-03-31T11:02:10;4.27;;;2.93;;
22429;SDS011;11382;48.086;11.632;2023-03-31T11:04:57;5.55;;;3.10;;
22429;SDS011;11382;48.086;11.632;2023-03-31T11:07:39;5.95;;;3.30;;
22429;SDS011;11382;48.086;11.632;2023-03-31T11:10:22;5.88;;;3.67;;
22429;SDS011;11382;48.086;11.632;2023-03-31T11:13:10;6.15;;;3.70;;
22429;SDS011;11382;48.086;11.632;2023-03-31T11:15:45;5.95;;;3.50;;
22429;SDS011;11382;48.086;11.632;2023-03-31T11:18:32;5.53;;;3.78;;
22429;SDS011;11382;48.086;11.632;2023-03-31T11:21:10;7.03;;;3.80;;
22429;SDS011;11382;48.086;11.632;2023-03-31T11:23:48;6.38;;;3.70;;
22429;SDS011;11382;48.086;11.632;2023-03-31T11:26:21;6.00;;;4.10;;
22429;SDS011;11382;48.086;11.632;2023-03-31T11:28:57;7.20;;;3.38;;
22429;SDS011;11382;48.086;11.632;2023-03-31T11:31:35;7.72;;;3.53;;
22429;SDS011;11382;48.086;11.632;2023-03-31T11:34:13;8.13;;;3.28;;
22429;SDS011;11382;48.086;11.632;2023-03-31T11:37:03;5.75;;;2.50;;
22429;SDS011;11382;48.086;11.632;2023-03-31T11:39:53;2.45;;;1.38;;
22429;SDS011;11382;48.086;11.632;2023-03-31T11:42:32;3.67;;;1.60;;
22429;SDS011;11382;48.086;11.632;2023-03-31T11:47:38;2.80;;;1.27;;
22429;SDS011;11382;48.086;11.632;2023-03-31T11:50:12;2.88;;;1.10;;
22429;SDS011;11382;48.086;11.632;2023-03-31T11:55:18;1.20;;;1.10;;
22429;SDS011;11382;48.086;11.632;2023-03-31T11:57:50;6.32;;;1.50;;
22429;SDS011;11382;48.086;11.632;2023-03-31T12:00:26;3.53;;;1.20;;
22429;SDS011;11382;48.086;11.632;2023-03-31T12:02:58;2.35;;;1.33;;
22429;SDS011;11382;48.086;11.632;2023-03-31T12:05:35;2.58;;;1.20;;
22429;SDS011;11382;48.086;11.632;2023-03-31T12:08:09;3.65;;;1.50;;
22429;SDS011;11382;48.086;11.632;2023-03-31T12:10:44;4.38;;;1.30;;
22429;SDS011;11382;48.086;11.632;2023-03-31T12:13:24;3.63;;;1.67;;
22429;SDS011;11382;48.086;11.632;2023-03-31T12:16:03;3.30;;;1.38;;
22429;SDS011;11382;48.086;11.632;2023-03-31T12:18:36;2.00;;;1.30;;
22429;SDS011;11382;48.086;11.632;2023-03-31T12:21:08;1.75;;;1.17;;
22429;SDS011;11382;48.086;11.632;2023-03-31T12:23:38;3.90;;;1.20;;
22429;SDS011;11382;48.086;11.632;2023-03-31T12:26:13;3.28;;;1.40;;
22429;SDS011;11382;48.086;11.632;2023-03-31T12:28:55;3.30;;;1.27;;
22429;SDS011;11382;48.086;11.632;2023-03-31T12:31:26;2.33;;;1.30;;
22429;SDS011;11382;48.086;11.632;2023-03-31T12:33:56;3.58;;;2.10;;
22429;SDS011;11382;48.086;11.632;2023-03-31T12:36:32;8.50;;;1.90;;
22429;SDS011;11382;48.086;11.632;2023-03-31T12:39:22;6.00;;;1.50;;
22429;SDS011;11382;48.086;11.632;2023-03-31T12:42:03;3.08;;;1.75;;
22429;SDS011;11382;48.086;11.632;2023-03-31T12:44:54;2.35;;;1.42;;
22429;SDS011;11382;48.086;11.632;2023-03-31T12:47:34;4.13;;;1.60;;
22429;SDS011;11382;48.086;11.632;2023-03-31T12:53:04;2.65;;;1.70;;
22429;SDS011;11382;48.086;11.632;2023-03-31T12:55:42;4.65;;;2.10;;
22429;SDS011;11382;48.086;11.632;2023-03-31T12:58:36;5.20;;;2.13;;
22429;SDS011;11382;48.086;11.632;2023-03-31T13:01:08;4.13;;;2.70;;
22429;SDS011;11382;48.086;11.632;2023-03-31T13:03:48;4.60;;;2.55;;
22429;SDS011;11382;48.086;11.632;2023-03-31T13:09:42;2.25;;;1.55;;
22429;SDS011;11382;48.086;11.632;2023-03-31T13:12:19;3.70;;;1.42;;
22429;SDS011;11382;48.086;11.632;2023-03-31T13:14:50;1.48;;;1.33;;
22429;SDS011;11382;48.086;11.632;2023-03-31T13:17:21;2.42;;;0.98;;
22429;SDS011;11382;48.086;11.632;2023-03-31T13:19:52;3.38;;;1.00;;
22429;SDS011;11382;48.086;11.632;2023-03-31T13:22:29;3.67;;;0.70;;
22429;SDS011;11382;48.086;11.632;2023-03-31T13:27:53;1.73;;;1.13;;
22429;SDS011;11382;48.086;11.632;2023-03-31T13:33:14;3.00;;;0.80;;
22429;SDS011;11382;48.086;11.632;2023-03-31T13:35:47;1.42;;;1.00;;
22429;SDS011;11382;48.086;11.632;2023-03-31T13:38:22;3.20;;;1.00;;
22429;SDS011;11382;48.086;11.632;2023-03-31T13:41:06;0.95;;;0.68;;
22429;SDS011;11382;48.086;11.632;2023-03-31T13:47:13;2.53;;;0.70;;
22429;SDS011;11382;48.086;11.632;2023-03-31T13:50:29;5.38;;;1.00;;
22429;SDS011;11382;48.086;11.632;2023-03-31T13:53:18;2.55;;;0.88;;
22429;SDS011;11382;48.086;11.632;2023-03-31T13:56:00;3.85;;;0.93;;
22429;SDS011;11382;48.086;11.632;2023-03-31T14:01:44;2.95;;;1.23;;
22429;SDS011;11382;48.086;11.632;2023-03-31T14:07:14;2.08;;;1.08;;
22429;SDS011;11382;48.086;11.632;2023-03-31T14:09:44;4.72;;;1.17;;
22429;SDS011;11382;48.086;11.632;2023-03-31T14:12:19;3.13;;;1.23;;
22429;SDS011;11382;48.086;11.632;2023-03-31T14:14:51;3.17;;;1.00;;
22429;SDS011;11382;48.086;11.632;2023-03-31T14:17:21;5.03;;;1.10;;
22429;SDS011;11382;48.086;11.632;2023-03-31T14:19:57;3.90;;;1.23;;
22429;SDS011;11382;48.086;11.632;2023-03-31T14:22:38;3.35;;;1.30;;
22429;SDS011;11382;48.086;11.632;2023-03-31T14:25:15;1.75;;;1.13;;
22429;SDS011;11382;48.086;11.632;2023-03-31T14:27:53;2.33;;;1.10;;
22429;SDS011;11382;48.086;11.632;2023-03-31T14:30:34;3.33;;;1.48;;
22429;SDS011;11382;48.086;11.632;2023-03-31T14:33:14;4.70;;;1.50;;
22429;SDS011;11382;48.086;11.632;2023-03-31T14:35:56;2.90;;;1.40;;
22429;SDS011;11382;48.086;11.632;2023-03-31T14:38:27;1.88;;;1.52;;
22429;SDS011;11382;48.086;11.632;2023-03-31T14:40:57;4.55;;;1.35;;
22429;SDS011;11382;48.086;11.632;2023-03-31T14:43:27;3.10;;;1.40;;
22429;SDS011;11382;48.086;11.632;2023-03-31T14:45:59;3.88;;;1.33;;
22429;SDS011;11382;48.086;11.632;2023-03-31T14:48:29;1.50;;;0.90;;
22429;SDS011;11382;48.086;11.632;2023-03-31T14:51:01;2.70;;;0.85;;
22429;SDS011;11382;48.086;11.632;2023-03-31T14:53:35;1.33;;;0.50;;
22429;SDS011;11382;48.086;11.632;2023-03-31T14:56:06;0.70;;;0.40;;
22429;SDS011;11382;48.086;11.632;2023-03-31T14:58:37;1.30;;;0.57;;
22429;SDS011;11382;48.086;11.632;2023-03-31T15:01:11;1.05;;;0.63;;
22429;SDS011;11382;48.086;11.632;2023-03-31T15:03:43;4.93;;;0.55;;
22429;SDS011;11382;48.086;11.632;2023-03-31T15:06:14;2.25;;;0.60;;
22429;SDS011;11382;48.086;11.632;2023-03-31T15:08:42;2.25;;;0.82;;
22429;SDS011;11382;48.086;11.632;2023-03-31T15:11:12;2.20;;;0.63;;
22429;SDS011;11382;48.086;11.632;2023-03-31T15:13:45;3.00;;;0.82;;
22429;SDS011;11382;48.086;11.632;2023-03-31T15:16:32;2.28;;;0.70;;
22429;SDS011;11382;48.086;11.632;2023-03-31T15:19:06;1.67;;;0.80;;
22429;SDS011;11382;48.086;11.632;2023-03-31T15:21:41;3.20;;;0.88;;
22429;SDS011;11382;48.086;11.632;2023-03-31T15:24:12;1.67;;;0.50;;
22429;SDS011;11382;48.086;11.632;2023-03-31T15:26:42;1.27;;;0.70;;
22429;SDS011;11382;48.086;11.632;2023-03-31T15:29:18;1.40;;;0.60;;
22429;SDS011;11382;48.086;11.632;2023-03-31T15:31:48;1.35;;;0.52;;
22429;SDS011;11382;48.086;11.632;2023-03-31T15:34:19;2.67;;;0.70;;
22429;SDS011;11382;48.086;11.632;2023-03-31T15:36:54;1.67;;;0.80;;
22429;SDS011;11382;48.086;11.632;2023-03-31T15:39:23;1.42;;;0.60;;
22429;SDS011;11382;48.086;11.632;2023-03-31T15:41:53;2.17;;;0.80;;
22429;SDS011;11382;48.086;11.632;2023-03-31T15:47:12;1.33;;;0.68;;